E.r.bristol — A8XQ6 — position and weather

sailwx.info

Track history (hours):
 
Tides and Currents Weather Stations Pressure Air Temp Water Temp Dewpoint Dewpoint Depression Visibility Wind Speed Wind Dir Waves Ship Positions

E.r.bristol

Last reported at 2014-Oct-01 11:31 UTC. Time now 2014-Oct-26 02:59 UTC.
Position N 36°04' W 005°14'.
Warning: this ship's position is 24 days out of date.

Length 188 m; draft 10.8 m.

Type: Cargo ship. MMSI: 636092151.

Date/timePositionNaut miles runAvg speedWind from/ knotsBaromVisibWave heightAir tempDewpointWater temp
2014-Oct-01 11:31N 36°04' W 005°14'4 3.8
2014-Oct-01 10:33N 36°03' W 005°18'2 0.6
2014-Oct-01 07:33N 36°04' W 005°16'2 1.5
2014-Oct-01 06:24N 36°04' W 005°18'1 1.4
2014-Oct-01 05:33N 36°03' W 005°20'1 0.6
2014-Oct-01 04:04N 36°04' W 005°19'36811.0
2014-Sep-29 18:33N 37°01' E 002°14'1111.0
2014-Sep-29 17:33N 37°03' E 002°28'1110.9
2014-Sep-29 16:32N 37°05' E 002°41'1111.0
2014-Sep-29 15:34N 37°07' E 002°55'1110.7
2014-Sep-29 14:33N 37°08' E 003°08'1310.8
2014-Sep-29 13:24N 37°10' E 003°24'910.3
2014-Sep-29 12:31N 37°11' E 003°35'48410.7
2014-Sep-27 15:18N 36°40' E 013°39'810.8
2014-Sep-27 14:33N 36°37' E 013°49'1110.9
2014-Sep-27 13:33N 36°34' E 014°02'1111.0
2014-Sep-27 12:33N 36°30' E 014°15'1211.0
2014-Sep-27 11:30N 36°27' E 014°29'41611.0
2014-Sep-25 21:33N 36°24' E 023°06'1110.5
2014-Sep-25 20:29N 36°30' E 023°18'1211.5
2014-Sep-25 19:28N 36°40' E 023°25'2211.0
2014-Sep-25 17:27N 36°59' E 023°40'2611.2
2014-Sep-25 15:10N 37°21' E 023°57'711.2
2014-Sep-25 14:33N 37°27' E 024°01'1211.2
2014-Sep-25 13:30N 37°37' E 024°09'1211.2
2014-Sep-25 12:26N 37°49' E 024°11'1111.1
2014-Sep-25 11:27N 37°59' E 024°09'  
Track history (hours):
 
Tides and Currents Weather Stations Pressure Air Temp Water Temp Dewpoint Dewpoint Depression Visibility Wind Speed Wind Dir Waves Ship Positions

E.r.bristol

Last reported at 2014-Oct-01 11:31 UTC. Time now 2014-Oct-26 02:59 UTC.
Position N 36°04' W 005°14'.
Warning: this ship's position is 24 days out of date.

Length 188 m; draft 10.8 m.

Type: Cargo ship. MMSI: 636092151.

Date/timePositionNaut miles runAvg speedWind from/ knotsBaromVisibWave heightAir tempDewpointWater temp
2014-Oct-01 11:31N 36°04' W 005°14'4 3.8
2014-Oct-01 10:33N 36°03' W 005°18'2 0.6
2014-Oct-01 07:33N 36°04' W 005°16'2 1.5
2014-Oct-01 06:24N 36°04' W 005°18'1 1.4
2014-Oct-01 05:33N 36°03' W 005°20'1 0.6
2014-Oct-01 04:04N 36°04' W 005°19'36811.0
2014-Sep-29 18:33N 37°01' E 002°14'1111.0
2014-Sep-29 17:33N 37°03' E 002°28'1110.9
2014-Sep-29 16:32N 37°05' E 002°41'1111.0
2014-Sep-29 15:34N 37°07' E 002°55'1110.7
2014-Sep-29 14:33N 37°08' E 003°08'1310.8
2014-Sep-29 13:24N 37°10' E 003°24'910.3
2014-Sep-29 12:31N 37°11' E 003°35'48410.7
2014-Sep-27 15:18N 36°40' E 013°39'810.8
2014-Sep-27 14:33N 36°37' E 013°49'1110.9
2014-Sep-27 13:33N 36°34' E 014°02'1111.0
2014-Sep-27 12:33N 36°30' E 014°15'1211.0
2014-Sep-27 11:30N 36°27' E 014°29'41611.0
2014-Sep-25 21:33N 36°24' E 023°06'1110.5
2014-Sep-25 20:29N 36°30' E 023°18'1211.5
2014-Sep-25 19:28N 36°40' E 023°25'2211.0
2014-Sep-25 17:27N 36°59' E 023°40'2611.2
2014-Sep-25 15:10N 37°21' E 023°57'711.2
2014-Sep-25 14:33N 37°27' E 024°01'1211.2
2014-Sep-25 13:30N 37°37' E 024°09'1211.2
2014-Sep-25 12:26N 37°49' E 024°11'1111.1
2014-Sep-25 11:27N 37°59' E 024°09'  

Dump ship's entire track history